Time;durP1;ratioP1;P1;durP2;ratioP2;P2;SDS_P1;SDS_P2;PMS_P1;PMS_P2;Temp;Humidity;BMP_temperature;BMP_pressure;BME280_temperature;BME280_humidity;BME280_pressure;Samples;Min_cycle;Max_cycle;Signal;HPM_P1;HPM_P2
2022/09/16 00:00:52;;;;;;;6.18;1.50;;;;;;;16.31;59.24;101047.22;5079854;28;20048;-63
2022/09/16 00:03:20;;;;;;;3.80;1.35;;;;;;;16.31;59.36;101049.94;5074773;28;20059;-63
2022/09/16 00:05:50;;;;;;;3.40;1.35;;;;;;;16.30;59.43;101044.78;5075841;28;20049;-63
2022/09/16 00:08:18;;;;;;;4.32;1.65;;;;;;;16.30;59.41;101047.47;5079123;28;20451;-63
2022/09/16 00:10:46;;;;;;;6.88;2.13;;;;;;;16.29;59.26;101052.09;5083414;28;20062;-63
2022/09/16 00:13:16;;;;;;;4.90;2.00;;;;;;;16.28;59.24;101045.03;5079602;28;20091;-63
2022/09/16 00:15:44;;;;;;;5.97;1.70;;;;;;;16.28;59.31;101043.13;5082399;28;20045;-63
2022/09/16 00:18:12;;;;;;;6.60;1.55;;;;;;;16.27;59.09;101036.06;5082569;28;20067;-63
2022/09/16 00:20:44;;;;;;;4.45;2.10;;;;;;;16.27;59.27;101041.50;5077165;28;20040;-63
2022/09/16 00:23:11;;;;;;;6.65;1.85;;;;;;;16.29;59.36;101041.25;5081097;28;20045;-63
2022/09/16 00:25:39;;;;;;;4.60;1.20;;;;;;;16.28;59.30;101045.84;5076415;28;20041;-63
2022/09/16 00:28:07;;;;;;;3.53;1.45;;;;;;;16.28;59.09;101045.84;5065865;28;20049;-63
2022/09/16 00:30:36;;;;;;;3.38;1.30;;;;;;;16.28;59.24;101040.41;5071030;28;20049;-63
2022/09/16 00:33:04;;;;;;;7.10;2.20;;;;;;;16.28;59.20;101036.88;5079627;28;20048;-63
2022/09/16 00:35:32;;;;;;;4.05;1.48;;;;;;;16.27;59.33;101044.19;5074944;28;20047;-63
2022/09/16 00:37:59;;;;;;;5.05;2.10;;;;;;;16.26;59.13;101042.56;5081381;28;20053;-63
2022/09/16 00:40:27;;;;;;;4.65;1.38;;;;;;;16.25;59.35;101035.50;5071683;28;20052;-63
2022/09/16 00:42:55;;;;;;;5.57;1.35;;;;;;;16.24;59.37;101046.59;5083738;28;20048;-63
2022/09/16 00:45:26;;;;;;;2.75;1.35;;;;;;;16.24;59.11;101042.00;5081358;28;20051;-63
2022/09/16 00:47:59;;;;;;;4.78;2.00;;;;;;;16.23;59.10;101036.84;5065185;28;20239;-63
2022/09/16 00:50:36;;;;;;;4.00;1.60;;;;;;;16.22;59.09;101033.31;5079781;28;20058;-63
2022/09/16 00:53:05;;;;;;;5.40;1.70;;;;;;;16.23;59.09;101025.97;5083080;28;20052;-63
2022/09/16 00:55:36;;;;;;;4.70;1.95;;;;;;;16.22;59.03;101024.34;5074107;28;20490;-63
2022/09/16 00:58:09;;;;;;;5.30;1.75;;;;;;;16.22;58.90;101025.16;5079764;28;20059;-63
2022/09/16 01:00:37;;;;;;;4.32;1.60;;;;;;;16.23;58.93;101028.69;5078641;28;20126;-63
2022/09/16 01:03:06;;;;;;;4.25;1.38;;;;;;;16.21;58.94;101015.38;5081525;28;20114;-64
2022/09/16 01:05:36;;;;;;;5.30;1.35;;;;;;;16.20;59.07;101021.88;5083630;28;20059;-63
2022/09/16 01:08:04;;;;;;;3.40;1.40;;;;;;;16.19;59.15;101017.53;5079870;28;20045;-64
2022/09/16 01:10:32;;;;;;;5.72;1.40;;;;;;;16.20;59.10;101024.59;5078724;28;20055;-63
2022/09/16 01:13:03;;;;;;;4.10;1.48;;;;;;;16.18;59.05;101021.31;5075304;28;20055;-63
2022/09/16 01:15:37;;;;;;;7.95;1.75;;;;;;;16.17;59.10;101027.00;5083148;28;20037;-64
2022/09/16 01:18:14;;;;;;;7.20;1.77;;;;;;;16.16;59.22;101022.66;5068430;28;20257;-63
2022/09/16 01:21:08;;;;;;;5.55;1.73;;;;;;;16.15;59.29;101024.53;5075812;28;20044;-63
2022/09/16 01:24:06;;;;;;;7.00;2.45;;;;;;;16.14;59.26;101024.81;5071554;28;20052;-63
2022/09/16 01:27:13;;;;;;;4.90;1.88;;;;;;;16.14;59.37;101030.22;5057083;28;20140;-63
2022/09/16 01:30:03;;;;;;;5.97;1.70;;;;;;;16.14;59.26;101022.09;5025830;28;20178;-63
2022/09/16 01:32:41;;;;;;;6.82;1.65;;;;;;;16.13;59.24;101023.97;5028527;28;20128;-63
2022/09/16 01:35:19;;;;;;;6.13;1.60;;;;;;;16.11;59.19;101018.00;5024981;28;20049;-63
2022/09/16 01:37:56;;;;;;;3.33;1.15;;;;;;;16.11;59.39;101018.00;5026087;28;20057;-63
2022/09/16 01:40:31;;;;;;;4.97;1.35;;;;;;;16.10;59.18;101010.94;5023722;28;20045;-63
2022/09/16 01:43:10;;;;;;;4.97;2.20;;;;;;;16.11;59.27;101014.47;5027427;28;20474;-63
2022/09/16 01:45:48;;;;;;;5.72;1.85;;;;;;;16.09;59.19;101013.91;5034736;28;20042;-63
2022/09/16 01:48:23;;;;;;;6.30;2.10;;;;;;;16.08;59.26;101015.78;5029904;28;20054;-63
2022/09/16 01:50:59;;;;;;;5.10;1.60;;;;;;;16.08;59.22;101017.69;5025803;28;20176;-63
2022/09/16 01:53:32;;;;;;;4.63;1.58;;;;;;;16.07;59.27;101016.03;5029031;28;20041;-63
2022/09/16 01:56:06;;;;;;;3.75;1.42;;;;;;;16.05;59.17;101019.00;5032581;28;20051;-63
2022/09/16 01:58:39;;;;;;;5.85;1.92;;;;;;;16.06;59.15;101017.13;5031734;28;20052;-64
2022/09/16 02:01:13;;;;;;;5.60;1.77;;;;;;;16.05;58.97;101015.47;5025537;28;20060;-64
2022/09/16 02:03:47;;;;;;;4.95;1.50;;;;;;;16.04;59.03;101011.94;5041603;28;20055;-63
2022/09/16 02:06:19;;;;;;;6.93;1.60;;;;;;;16.04;58.90;101013.84;5072443;28;20045;-63
2022/09/16 02:08:52;;;;;;;6.07;2.00;;;;;;;16.03;58.92;101007.59;5083792;28;20045;-64
2022/09/16 02:11:21;;;;;;;6.75;1.70;;;;;;;16.03;58.81;101012.19;5075638;28;20060;-63
2022/09/16 02:13:54;;;;;;;4.90;1.75;;;;;;;15.94;58.72;101004.50;5075104;28;20564;-63
2022/09/16 02:16:29;;;;;;;7.00;1.95;;;;;;;16.02;58.59;101026.81;5083978;28;20094;-63
2022/09/16 02:19:02;;;;;;;2.75;1.60;;;;;;;16.02;58.79;101022.22;5078351;28;20056;-64
2022/09/16 02:21:34;;;;;;;5.68;1.40;;;;;;;16.00;58.53;101027.09;5068140;28;20059;-63
2022/09/16 02:24:05;;;;;;;7.50;1.60;;;;;;;16.01;58.52;101022.47;5083889;28;20041;-63
2022/09/16 02:26:37;;;;;;;3.58;1.40;;;;;;;15.98;58.38;101022.97;5075074;28;20068;-63
2022/09/16 02:29:13;;;;;;;5.45;2.15;;;;;;;15.97;58.35;101024.06;5077065;28;20068;-63
2022/09/16 02:31:44;;;;;;;7.43;1.33;;;;;;;15.94;58.37;101026.19;5087439;28;20052;-63
2022/09/16 02:34:16;;;;;;;5.55;1.35;;;;;;;15.94;58.45;101019.97;5083639;28;20052;-64
2022/09/16 02:36:47;;;;;;;3.65;1.33;;;;;;;15.92;58.13;101014.78;5084500;28;20052;-63
2022/09/16 02:39:20;;;;;;;4.50;1.27;;;;;;;15.91;58.17;101015.88;5070889;28;20048;-63
2022/09/16 02:41:48;;;;;;;4.53;1.58;;;;;;;15.90;58.02;101014.22;5073857;28;20041;-64
2022/09/16 02:44:16;;;;;;;3.28;1.30;;;;;;;15.89;58.03;101009.06;5077919;28;20048;-63
2022/09/16 02:46:54;;;;;;;5.82;1.23;;;;;;;15.89;58.23;101012.59;5081563;28;20045;-63
2022/09/16 02:49:29;;;;;;;3.22;1.15;;;;;;;15.89;58.15;101006.34;5073296;28;20045;-63
2022/09/16 02:52:04;;;;;;;3.55;1.63;;;;;;;15.87;58.10;101012.03;5078802;28;20533;-63
2022/09/16 02:54:38;;;;;;;3.00;1.15;;;;;;;15.88;57.95;101020.97;5078568;28;20087;-63
2022/09/16 02:57:06;;;;;;;7.47;1.92;;;;;;;15.84;57.73;101015.25;5081682;28;20059;-63
2022/09/16 02:59:34;;;;;;;3.67;1.40;;;;;;;15.84;57.95;101014.41;5079725;28;20060;-63
2022/09/16 03:02:01;;;;;;;3.25;1.40;;;;;;;15.85;57.97;101010.63;5086810;28;20056;-63
2022/09/16 03:04:30;;;;;;;3.40;1.55;;;;;;;15.84;57.93;101012.53;5079922;28;20056;-63
2022/09/16 03:06:58;;;;;;;2.78;1.20;;;;;;;15.83;57.78;101016.31;5081684;28;20048;-63
2022/09/16 03:09:28;;;;;;;6.07;1.92;;;;;;;15.83;57.93;101020.91;5072753;28;20412;-63
2022/09/16 03:12:16;;;;;;;4.53;1.58;;;;;;;15.80;57.89;101008.69;5085127;28;20101;-63
2022/09/16 03:15:07;;;;;;;4.57;1.27;;;;;;;15.83;57.93;101023.63;5080165;28;20060;-63
2022/09/16 03:17:49;;;;;;;5.22;1.38;;;;;;;15.82;58.11;101008.44;5081163;28;20052;-63
2022/09/16 03:20:26;;;;;;;6.63;1.77;;;;;;;15.80;58.00;101005.16;5068232;28;20059;-63
2022/09/16 03:23:01;;;;;;;4.68;1.65;;;;;;;15.79;58.13;101007.03;5082354;28;20466;-63
2022/09/16 03:25:39;;;;;;;3.95;1.85;;;;;;;15.78;57.96;101004.59;5081736;28;20410;-63
2022/09/16 03:28:12;;;;;;;3.80;1.77;;;;;;;15.77;57.78;101002.94;5084522;28;20048;-63
2022/09/16 03:30:49;;;;;;;5.18;1.63;;;;;;;15.75;58.16;101000.50;5081584;28;20485;-63
2022/09/16 03:33:20;;;;;;;;;;;;;;;15.74;58.14;100993.44;5081546;28;20056;-63
2022/09/16 03:35:52;;;;;;;7.60;1.70;;;;;;;15.74;57.95;100992.63;5076988;28;19920;-63
2022/09/16 03:38:20;;;;;;;8.13;1.50;;;;;;;15.73;58.22;100994.50;5079472;28;20040;-63
2022/09/16 03:40:48;;;;;;;5.03;1.35;;;;;;;15.71;58.08;101006.66;5081036;28;20044;-63
2022/09/16 03:43:17;;;;;;;5.15;1.50;;;;;;;15.73;58.28;101001.81;5080338;28;20049;-63
2022/09/16 03:45:45;;;;;;;2.72;1.10;;;;;;;15.72;58.18;100995.56;5080229;28;20040;-63
2022/09/16 03:48:13;;;;;;;6.95;1.90;;;;;;;15.71;58.28;100993.13;5078412;28;20052;-63
2022/09/16 03:50:41;;;;;;;8.02;1.27;;;;;;;15.71;58.26;100998.53;5074668;28;20059;-63
2022/09/16 03:53:10;;;;;;;4.95;1.45;;;;;;;15.70;58.14;101002.31;5080271;28;20055;-63
2022/09/16 03:55:38;;;;;;;4.97;1.30;;;;;;;15.68;58.14;100997.16;5073765;28;20051;-63
2022/09/16 03:58:05;;;;;;;4.10;2.08;;;;;;;15.69;58.21;100995.25;5081639;28;21342;-63
2022/09/16 04:00:33;;;;;;;6.20;1.70;;;;;;;15.69;58.12;101001.50;5078076;28;20049;-63
2022/09/16 04:03:01;;;;;;;8.13;1.48;;;;;;;15.68;58.20;101005.28;5075249;28;20053;-63
2022/09/16 04:05:29;;;;;;;6.18;2.13;;;;;;;15.68;57.99;101008.00;5075401;28;20049;-63
2022/09/16 04:07:57;;;;;;;5.57;1.17;;;;;;;15.67;58.17;101017.19;5075837;28;20064;-63
2022/09/16 04:10:26;;;;;;;5.53;1.67;;;;;;;15.66;58.25;101009.31;5078944;28;20057;-63
2022/09/16 04:12:56;;;;;;;5.78;1.77;;;;;;;15.65;58.32;101005.78;5076250;28;20045;-63
2022/09/16 04:15:24;;;;;;;7.15;1.63;;;;;;;15.63;58.25;101014.16;5088883;28;20048;-63
2022/09/16 04:17:52;;;;;;;4.10;1.63;;;;;;;15.61;58.34;101007.34;5077516;28;20055;-63
2022/09/16 04:20:20;;;;;;;6.07;1.70;;;;;;;15.61;58.36;101004.66;5067459;28;20060;-63
2022/09/16 04:22:48;;;;;;;6.18;1.48;;;;;;;15.60;58.52;101020.09;5078149;28;20059;-63
2022/09/16 04:25:15;;;;;;;6.60;1.40;;;;;;;15.59;58.52;101010.34;5081672;28;20041;-63
2022/09/16 04:27:44;;;;;;;5.68;1.52;;;;;;;15.58;58.45;101011.41;5083759;28;20037;-63
2022/09/16 04:30:13;;;;;;;4.70;1.38;;;;;;;15.56;58.58;101012.72;5073404;28;20059;-64
2022/09/16 04:32:41;;;;;;;3.85;1.75;;;;;;;15.55;58.64;101009.19;5080553;28;20056;-63
2022/09/16 04:35:09;;;;;;;4.13;1.40;;;;;;;15.53;58.68;100999.66;5079778;28;20397;-63
2022/09/16 04:37:37;;;;;;;6.43;1.70;;;;;;;15.57;58.63;101017.09;5077139;28;20049;-63
2022/09/16 04:40:05;;;;;;;5.45;1.77;;;;;;;15.56;58.62;101007.28;5079868;28;20139;-62
2022/09/16 04:42:33;;;;;;;6.75;1.52;;;;;;;15.54;58.77;101010.25;5077095;28;20516;-63
2022/09/16 04:45:02;;;;;;;3.72;1.33;;;;;;;15.53;58.68;101010.50;5084162;28;20469;-63
2022/09/16 04:47:30;;;;;;;3.25;1.27;;;;;;;15.51;58.90;101016.16;5079154;28;20055;-63
2022/09/16 04:49:58;;;;;;;6.88;1.73;;;;;;;15.51;58.80;101021.59;5087110;28;20058;-63
2022/09/16 04:52:26;;;;;;;2.58;1.10;;;;;;;15.49;59.04;101015.59;5082479;28;20056;-63
2022/09/16 04:54:53;;;;;;;3.35;1.60;;;;;;;15.46;59.02;101012.56;5082859;28;20041;-63
2022/09/16 04:57:24;;;;;;;4.88;1.20;;;;;;;15.48;58.93;101008.53;5078732;28;20052;-63
2022/09/16 04:59:52;;;;;;;3.83;1.35;;;;;;;15.48;59.09;101013.13;5078142;28;20040;-63
2022/09/16 05:02:21;;;;;;;3.10;1.35;;;;;;;15.47;59.07;101012.31;5079173;28;20059;-64
2022/09/16 05:04:49;;;;;;;3.60;1.35;;;;;;;15.45;59.15;101003.63;5087336;28;20055;-63
2022/09/16 05:07:16;;;;;;;4.68;1.50;;;;;;;15.47;59.25;101001.47;5083255;28;20063;-65
2022/09/16 05:09:44;;;;;;;3.30;1.23;;;;;;;15.48;59.14;101007.72;5086208;28;20045;-63
2022/09/16 05:12:13;;;;;;;3.13;1.00;;;;;;;15.49;59.06;101001.22;5081311;28;20044;-65
2022/09/16 05:14:40;;;;;;;5.15;1.67;;;;;;;15.49;59.12;101004.75;5085116;28;20052;-66
2022/09/16 05:17:08;;;;;;;5.13;1.35;;;;;;;15.47;59.13;101017.72;5082428;28;20045;-65
2022/09/16 05:19:37;;;;;;;7.80;1.52;;;;;;;15.46;59.28;101005.25;5069451;28;20055;-65
2022/09/16 05:22:06;;;;;;;3.08;1.20;;;;;;;15.48;59.35;101010.44;5077524;28;20055;-67
2022/09/16 05:24:35;;;;;;;4.90;1.25;;;;;;;15.46;59.28;101012.56;5076584;28;20044;-64
2022/09/16 05:27:03;;;;;;;6.45;1.27;;;;;;;15.46;59.40;101024.22;5079992;28;20041;-67
2022/09/16 05:29:30;;;;;;;4.13;1.25;;;;;;;15.46;59.33;101020.69;5077403;28;20537;-64
2022/09/16 05:31:58;;;;;;;9.00;1.73;;;;;;;15.46;59.42;101028.81;5080361;28;20064;-64
2022/09/16 05:34:27;;;;;;;3.22;1.23;;;;;;;15.45;59.54;101025.28;5079682;28;20513;-64
2022/09/16 05:36:57;;;;;;;4.40;1.30;;;;;;;15.45;59.68;101027.19;5082421;28;20264;-65
2022/09/16 05:39:24;;;;;;;5.82;1.20;;;;;;;15.41;59.67;101024.16;5079023;28;20068;-65
2022/09/16 05:41:55;;;;;;;4.90;1.00;;;;;;;15.40;59.50;101030.63;5078448;28;20044;-63
2022/09/16 05:44:23;;;;;;;4.30;1.30;;;;;;;15.43;59.66;101030.13;5081938;28;20044;-62
2022/09/16 05:46:50;;;;;;;3.38;1.15;;;;;;;15.43;59.60;101027.44;5070226;28;20048;-62
2022/09/16 05:49:19;;;;;;;3.05;1.20;;;;;;;15.44;59.75;101020.13;5073959;28;20048;-63
2022/09/16 05:51:49;;;;;;;2.05;1.20;;;;;;;15.45;59.87;101032.59;5084136;28;20084;-63
2022/09/16 05:54:18;;;;;;;2.33;1.10;;;;;;;15.41;59.61;101024.16;4386817;28;10000797;-62
2022/09/16 05:56:47;;;;;;;8.35;1.85;;;;;;;15.43;60.04;101027.44;5106338;28;20070;-63
2022/09/16 05:59:16;;;;;;;7.80;1.40;;;;;;;15.43;59.89;101023.91;5114759;28;20067;-65
2022/09/16 06:01:44;;;;;;;2.95;1.00;;;;;;;15.42;59.95;101020.38;5114222;28;20499;-65
2022/09/16 06:04:14;;;;;;;4.72;1.27;;;;;;;15.42;60.19;101020.38;5109025;28;20040;-63
2022/09/16 06:06:42;;;;;;;3.67;0.98;;;;;;;15.40;60.07;101016.28;5113332;28;20062;-63
2022/09/16 06:09:12;;;;;;;3.67;1.00;;;;;;;15.40;59.84;101018.97;5117160;28;20055;-64
2022/09/16 06:11:43;;;;;;;3.58;1.10;;;;;;;15.39;60.05;101023.56;5113078;28;20082;-63
2022/09/16 06:14:12;;;;;;;7.13;1.33;;;;;;;15.39;59.95;101018.16;5102821;28;20066;-65
2022/09/16 06:16:41;;;;;;;4.00;1.02;;;;;;;15.37;59.97;101025.72;5112017;28;20040;-63
2022/09/16 06:19:12;;;;;;;3.35;1.00;;;;;;;15.37;60.48;101024.91;5122409;27;20052;-63
2022/09/16 06:21:42;;;;;;;3.67;1.00;;;;;;;15.37;60.24;101025.72;5112011;28;20073;-63
2022/09/16 06:24:10;;;;;;;5.45;1.30;;;;;;;15.38;60.35;101038.19;5122766;28;20043;-63
2022/09/16 06:26:40;;;;;;;9.43;1.90;;;;;;;15.36;60.28;101032.19;5113959;28;20058;-63
2022/09/16 06:29:10;;;;;;;4.70;1.48;;;;;;;15.36;60.55;101037.63;5095667;28;20059;-63
2022/09/16 06:31:38;;;;;;;2.72;1.08;;;;;;;15.32;60.28;101028.34;5099645;28;20051;-63
2022/09/16 06:34:08;;;;;;;3.58;1.15;;;;;;;15.37;60.51;101039.25;5103589;28;20073;-63
2022/09/16 06:36:38;;;;;;;5.18;1.58;;;;;;;15.38;60.32;101031.94;5110557;28;20427;-63
2022/09/16 06:39:12;;;;;;;5.63;1.00;;;;;;;15.28;60.23;101019.91;5122283;27;20048;-63
2022/09/16 06:41:39;;;;;;;3.40;0.90;;;;;;;15.35;60.41;101037.88;5136941;27;20227;-63
2022/09/16 06:44:07;;;;;;;4.80;1.17;;;;;;;15.36;60.35;101036.78;5120140;27;20055;-63
2022/09/16 06:46:37;;;;;;;5.88;1.25;;;;;;;15.29;60.25;101021.53;5124878;27;20475;-63
2022/09/16 06:49:05;;;;;;;3.92;1.50;;;;;;;15.35;60.35;101043.28;5119348;27;20388;-63
2022/09/16 06:51:34;;;;;;;5.63;1.02;;;;;;;15.33;60.35;101043.53;5114969;27;20055;-63
2022/09/16 06:54:03;;;;;;;5.25;0.98;;;;;;;15.33;60.52;101040.00;5122648;28;20138;-63
2022/09/16 06:56:32;;;;;;;3.63;0.85;;;;;;;15.33;60.76;101040.00;5097711;28;20058;-62
2022/09/16 06:59:00;;;;;;;7.35;1.33;;;;;;;15.33;60.63;101045.41;5108391;28;20058;-62
2022/09/16 07:01:30;;;;;;;9.18;1.95;;;;;;;15.32;60.84;101052.72;5108022;28;20047;-62
2022/09/16 07:04:03;;;;;;;5.43;1.70;;;;;;;15.32;60.68;101051.91;5110553;28;20063;-62
2022/09/16 07:06:32;;;;;;;4.85;1.20;;;;;;;15.33;60.64;101050.84;5108653;28;20052;-64
2022/09/16 07:09:19;;;;;;;6.38;1.50;;;;;;;15.32;60.92;101057.31;5115169;28;20043;-62
2022/09/16 07:11:47;;;;;;;4.35;1.55;;;;;;;15.32;60.51;101060.03;5107892;28;20044;-62
2022/09/16 07:14:14;;;;;;;4.30;1.10;;;;;;;15.29;60.74;101064.88;5106626;28;20066;-62
2022/09/16 07:16:42;;;;;;;4.82;1.90;;;;;;;15.21;60.81;101059.06;5109859;28;20048;-63
2022/09/16 07:19:11;;;;;;;2.80;0.75;;;;;;;15.28;60.50;101068.66;5112289;28;20065;-62
2022/09/16 07:21:40;;;;;;;3.13;1.02;;;;;;;15.26;60.49;101067.25;5107369;28;20044;-62
2022/09/16 07:24:11;;;;;;;5.25;1.23;;;;;;;15.26;60.66;101067.25;5114038;28;20052;-62
2022/09/16 07:26:40;;;;;;;4.28;1.40;;;;;;;15.25;60.57;101062.91;5112386;28;20047;-63
2022/09/16 07:29:11;;;;;;;3.30;1.05;;;;;;;15.21;60.68;101057.16;5106924;28;20440;-63
2022/09/16 07:31:39;;;;;;;5.43;1.10;;;;;;;15.25;60.63;101073.75;5112966;28;20392;-62
2022/09/16 07:34:09;;;;;;;5.00;2.00;;;;;;;15.24;60.84;101069.38;5106422;28;20259;-62
2022/09/16 07:36:39;;;;;;;7.28;1.88;;;;;;;15.24;60.91;101072.09;5109754;28;20440;-62
2022/09/16 07:39:08;;;;;;;5.00;1.30;;;;;;;15.23;60.90;101073.16;5110989;28;20040;-62
2022/09/16 07:41:37;;;;;;;5.28;1.33;;;;;;;15.26;61.07;101078.09;5109041;28;20440;-62
2022/09/16 07:44:07;;;;;;;3.42;0.90;;;;;;;15.27;60.95;101075.13;5107021;28;20047;-62
2022/09/16 07:46:36;;;;;;;6.93;1.60;;;;;;;15.28;60.87;101073.25;5107025;28;20051;-63
2022/09/16 07:49:06;;;;;;;5.65;1.25;;;;;;;15.29;61.00;101094.66;5109281;28;20039;-66
2022/09/16 07:51:34;;;;;;;4.40;1.48;;;;;;;15.31;61.20;101078.16;5105631;28;20051;-63
2022/09/16 07:54:05;;;;;;;3.90;1.10;;;;;;;15.28;61.41;101067.81;5108687;28;20075;-63
2022/09/16 07:56:35;;;;;;;3.97;1.23;;;;;;;15.32;61.64;101082.50;5106951;28;20039;-63
2022/09/16 07:59:05;;;;;;;7.85;1.35;;;;;;;15.31;61.76;101086.28;5110071;28;20055;-63
2022/09/16 08:01:34;;;;;;;3.85;1.85;;;;;;;15.27;61.73;101085.97;5111616;28;20071;-63
2022/09/16 08:04:06;;;;;;;3.50;1.52;;;;;;;15.30;61.88;101088.19;5114788;28;20364;-63
2022/09/16 08:06:38;;;;;;;3.22;1.10;;;;;;;15.30;61.84;101096.31;5110311;28;20060;-63
2022/09/16 08:09:07;;;;;;;2.45;0.90;;;;;;;15.29;62.48;101094.66;5111357;28;20055;-63
2022/09/16 08:11:55;;;;;;;2.78;1.02;;;;;;;15.30;62.19;101092.78;5111398;28;20051;-64
2022/09/16 08:14:22;;;;;;;4.45;1.25;;;;;;;15.31;62.25;101099.81;5121773;27;20056;-63
2022/09/16 08:16:50;;;;;;;2.42;0.80;;;;;;;15.30;62.26;101093.59;5111044;28;20062;-63
2022/09/16 08:19:19;;;;;;;7.30;1.25;;;;;;;15.33;62.31;101099.59;5108071;27;20119;-63
2022/09/16 08:21:47;;;;;;;4.40;1.05;;;;;;;15.32;62.34;101097.94;5116353;27;20048;-64
2022/09/16 08:24:16;;;;;;;4.82;1.50;;;;;;;15.32;62.44;101101.47;5115159;27;20051;-65
2022/09/16 08:26:43;;;;;;;7.53;1.42;;;;;;;15.31;62.41;101107.94;5119652;27;20048;-64
2022/09/16 08:29:11;;;;;;;4.28;1.13;;;;;;;15.32;62.47;101108.78;5115274;27;20134;-63
2022/09/16 08:31:39;;;;;;;4.65;1.05;;;;;;;15.32;62.54;101108.78;5112039;27;20105;-62
2022/09/16 08:34:07;;;;;;;5.40;1.08;;;;;;;15.31;62.63;101102.53;5111464;27;20078;-63
2022/09/16 08:36:35;;;;;;;4.47;2.53;;;;;;;15.32;62.92;101104.19;5119409;27;20052;-63
2022/09/16 08:39:03;;;;;;;7.05;1.08;;;;;;;15.39;63.05;101099.41;5116043;27;20062;-61
2022/09/16 08:41:51;;;;;;;3.13;1.00;;;;;;;15.39;63.04;101104.00;5114210;27;20052;-61
2022/09/16 08:44:31;;;;;;;2.50;1.00;;;;;;;15.37;62.98;101098.84;5102916;27;20074;-62
2022/09/16 08:47:00;;;;;;;4.38;1.00;;;;;;;15.42;63.22;101107.03;5110375;28;20525;-61
2022/09/16 08:49:35;;;;;;;6.10;1.10;;;;;;;15.57;63.00;101106.50;5105935;27;20044;-61
2022/09/16 08:52:09;;;;;;;4.75;1.10;;;;;;;15.51;62.89;101102.84;5106882;27;20060;-62
2022/09/16 08:54:40;;;;;;;4.85;1.48;;;;;;;15.50;63.38;101103.91;5103192;28;20066;-63
2022/09/16 08:57:14;;;;;;;2.17;0.90;;;;;;;15.50;63.09;101109.34;5113217;28;20047;-65
2022/09/16 08:59:48;;;;;;;2.58;0.90;;;;;;;15.52;63.18;101100.97;5107397;28;20036;-64
2022/09/16 09:02:31;;;;;;;6.72;2.45;;;;;;;15.57;63.90;101101.88;5106086;28;20048;-63
2022/09/16 09:04:59;;;;;;;3.72;1.00;;;;;;;15.63;63.05;101103.56;5107373;27;20052;-63
2022/09/16 09:07:36;;;;;;;4.82;1.05;;;;;;;15.57;63.14;101110.00;5112870;27;20052;-63
2022/09/16 09:10:13;;;;;;;2.72;0.88;;;;;;;15.55;63.05;101109.41;5108287;28;20056;-62
2022/09/16 09:12:48;;;;;;;3.63;1.00;;;;;;;15.53;63.05;101108.84;5106423;28;20056;-63
2022/09/16 09:15:31;;;;;;;2.63;0.98;;;;;;;15.54;63.00;101102.34;5102752;28;20181;-63
2022/09/16 09:18:13;;;;;;;2.55;0.95;;;;;;;15.55;62.98;101109.41;5103981;28;20059;-63
2022/09/16 09:20:50;;;;;;;4.25;1.10;;;;;;;15.56;62.83;101100.22;5109477;28;20092;-62
2022/09/16 09:23:32;;;;;;;3.72;1.23;;;;;;;15.64;63.42;101096.25;5106818;27;20047;-62
2022/09/16 09:26:09;;;;;;;4.05;1.13;;;;;;;15.61;62.74;101100.28;5108556;28;20048;-64
2022/09/16 09:29:00;;;;;;;3.78;1.02;;;;;;;15.59;62.72;101104.34;5106555;27;20048;-64
2022/09/16 09:31:40;;;;;;;3.78;1.00;;;;;;;15.67;62.55;101109.31;5114903;28;20137;-64
2022/09/16 09:34:23;;;;;;;3.50;1.05;;;;;;;15.67;62.90;101095.75;5113432;28;20547;-64
2022/09/16 09:37:09;;;;;;;2.88;0.95;;;;;;;15.66;62.73;101090.59;5110412;27;20086;-63
2022/09/16 09:39:49;;;;;;;4.35;1.52;;;;;;;15.80;62.84;101089.16;5113019;27;20054;-64
2022/09/16 09:42:21;;;;;;;4.60;1.00;;;;;;;15.76;62.63;101086.13;5114386;28;20067;-63
2022/09/16 09:44:57;;;;;;;7.97;2.22;;;;;;;15.73;62.46;101094.75;5114276;28;20062;-64
2022/09/16 09:47:36;;;;;;;6.28;1.40;;;;;;;15.94;63.11;101085.03;5113819;27;20119;-66
2022/09/16 09:50:15;;;;;;;8.63;2.08;;;;;;;15.99;62.46;101087.78;5114800;28;20048;-66
2022/09/16 09:52:48;;;;;;;6.65;1.60;;;;;;;16.06;62.15;101085.72;5110312;27;20053;-66
2022/09/16 09:55:18;;;;;;;5.70;1.77;;;;;;;15.91;62.30;101072.78;5111243;28;20134;-65
2022/09/16 09:58:00;;;;;;;4.80;1.05;;;;;;;15.96;61.82;101091.00;5110592;27;20042;-68
2022/09/16 10:00:29;;;;;;;4.43;2.20;;;;;;;15.91;61.25;101094.47;5106413;27;20333;-63
2022/09/16 10:03:04;;;;;;;5.00;0.93;;;;;;;15.93;61.86;101083.38;5108436;27;20069;-63
2022/09/16 10:05:32;;;;;;;3.15;1.15;;;;;;;16.05;62.60;101084.06;5112664;27;20051;-63
2022/09/16 10:08:04;;;;;;;5.97;1.45;;;;;;;15.97;61.43;101084.50;5113783;28;20044;-63
2022/09/16 10:10:34;;;;;;;2.38;0.88;;;;;;;15.97;61.45;101080.97;5106907;28;20052;-63
2022/09/16 10:13:09;;;;;;;6.97;1.20;;;;;;;15.99;61.39;101084.25;5121523;28;20479;-65
2022/09/16 10:15:40;;;;;;;3.95;0.90;;;;;;;15.96;60.66;101088.28;5109763;28;20050;-64
2022/09/16 10:18:13;;;;;;;2.67;0.75;;;;;;;15.94;60.98;101085.03;5115034;28;20059;-66
2022/09/16 10:20:44;;;;;;;4.80;1.20;;;;;;;15.97;61.19;101089.94;5104582;28;20044;-64
2022/09/16 10:23:13;;;;;;;2.67;1.00;;;;;;;15.94;61.39;101104.00;5107922;28;20056;-67
2022/09/16 10:25:42;;;;;;;4.20;1.33;;;;;;;15.95;61.41;101094.78;5105213;28;20054;-64
2022/09/16 10:28:23;;;;;;;3.92;1.10;;;;;;;15.97;61.75;101119.75;5109591;28;20052;-65
2022/09/16 10:30:54;;;;;;;4.90;1.45;;;;;;;15.94;61.91;101118.38;5109412;28;20048;-65
2022/09/16 10:33:25;;;;;;;3.55;1.00;;;;;;;15.93;61.80;101127.56;5116328;28;20044;-64
2022/09/16 10:35:56;;;;;;;3.70;0.98;;;;;;;15.82;61.52;101109.53;5109922;28;20047;-64
2022/09/16 10:38:33;;;;;;;7.90;1.00;;;;;;;15.88;61.24;101124.78;5109324;28;20059;-64
2022/09/16 10:41:07;;;;;;;6.25;1.15;;;;;;;15.87;61.21;101122.34;5111040;28;20054;-64
2022/09/16 10:43:38;;;;;;;4.00;0.75;;;;;;;15.86;61.15;101123.41;5112043;28;20048;-64
2022/09/16 10:46:07;;;;;;;4.72;1.00;;;;;;;15.84;61.06;101126.34;5108410;27;20052;-64
2022/09/16 10:48:36;;;;;;;3.83;0.77;;;;;;;15.82;60.93;101114.94;5110938;28;20061;-64
2022/09/16 10:51:05;;;;;;;1.88;0.80;;;;;;;15.81;61.24;101116.00;5110132;28;20051;-64
2022/09/16 10:53:35;;;;;;;2.72;0.82;;;;;;;15.83;61.09;101118.47;5110597;28;20040;-64
2022/09/16 10:56:18;;;;;;;1.90;0.70;;;;;;;15.84;61.12;101125.53;5113263;28;20048;-63
2022/09/16 10:58:46;;;;;;;2.10;0.57;;;;;;;15.84;61.11;101117.41;5115127;27;20055;-64
2022/09/16 11:01:31;;;;;;;3.13;1.30;;;;;;;15.86;61.32;101124.22;5109415;28;20047;-64
2022/09/16 11:04:15;;;;;;;1.65;0.88;;;;;;;15.88;61.32;101126.69;5106090;28;20498;-64
2022/09/16 11:06:55;;;;;;;3.13;0.75;;;;;;;15.90;61.45;101125.34;5119698;28;20052;-65
2022/09/16 11:09:30;;;;;;;4.57;0.93;;;;;;;15.91;61.48;101123.47;5128065;27;20058;-66
2022/09/16 11:12:21;;;;;;;1.05;0.70;;;;;;;15.91;61.76;101123.47;5123417;27;20058;-66
2022/09/16 11:14:57;;;;;;;3.08;0.90;;;;;;;15.89;61.89;101120.19;5109165;27;20064;-66
2022/09/16 11:17:41;;;;;;;4.55;1.15;;;;;;;15.91;61.78;101124.28;5121162;27;20044;-65
2022/09/16 11:20:50;;;;;;;1.77;0.88;;;;;;;15.92;61.75;101125.09;5119952;28;20053;-66
2022/09/16 11:23:32;;;;;;;1.67;0.70;;;;;;;15.91;62.05;101124.28;5120911;28;20048;-66
2022/09/16 11:26:06;;;;;;;2.45;1.00;;;;;;;15.92;62.04;101123.22;5117740;27;20066;-66
2022/09/16 11:28:45;;;;;;;1.80;0.52;;;;;;;15.92;61.93;101117.81;5121121;27;20047;-66
2022/09/16 11:31:24;;;;;;;2.67;0.95;;;;;;;15.93;62.18;101121.31;5122625;28;20048;-66
2022/09/16 11:33:59;;;;;;;3.92;1.00;;;;;;;15.92;61.93;101125.94;5121718;28;20063;-66
2022/09/16 11:36:51;;;;;;;2.65;0.85;;;;;;;15.93;62.14;101126.75;5121370;27;20055;-65
2022/09/16 11:39:43;;;;;;;1.83;0.95;;;;;;;15.93;62.15;101133.00;5118668;27;20157;-66
2022/09/16 11:42:20;;;;;;;2.90;1.00;;;;;;;15.93;62.36;101126.75;5124645;27;20054;-66
2022/09/16 11:44:57;;;;;;;4.25;1.58;;;;;;;15.96;62.58;101126.25;5125328;27;20069;-66
2022/09/16 11:47:43;;;;;;;4.15;1.55;;;;;;;15.97;62.41;101127.06;5117385;27;20057;-66